sensor_id;sensor_type;location;lat;lon;timestamp;pressure;altitude;pressure_sealevel;temperature;humidity
58843;BME280;44614;54.356;10.100;2023-04-16T00:01:42;101768.84;;;7.57;100.00
58843;BME280;44614;54.356;10.100;2023-04-16T00:04:07;101767.16;;;7.56;100.00
58843;BME280;44614;54.356;10.100;2023-04-16T00:06:32;101773.47;;;7.57;100.00
58843;BME280;44614;54.356;10.100;2023-04-16T00:08:58;101771.56;;;7.57;100.00
58843;BME280;44614;54.356;10.100;2023-04-16T00:11:23;101765.06;;;7.58;100.00
58843;BME280;44614;54.356;10.100;2023-04-16T00:13:48;101768.84;;;7.57;100.00
58843;BME280;44614;54.356;10.100;2023-04-16T00:16:13;101768.00;;;7.57;100.00
58843;BME280;44614;54.356;10.100;2023-04-16T00:18:39;101766.97;;;7.58;100.00
58843;BME280;44614;54.356;10.100;2023-04-16T00:21:05;101766.78;;;7.60;100.00
58843;BME280;44614;54.356;10.100;2023-04-16T00:23:30;101770.53;;;7.58;100.00
58843;BME280;44614;54.356;10.100;2023-04-16T00:25:55;101777.72;;;7.60;100.00
58843;BME280;44614;54.356;10.100;2023-04-16T00:28:23;101768.50;;;7.61;100.00
58843;BME280;44614;54.356;10.100;2023-04-16T00:30:49;101780.28;;;7.61;100.00
58843;BME280;44614;54.356;10.100;2023-04-16T00:33:14;101776.69;;;7.61;100.00
58843;BME280;44614;54.356;10.100;2023-04-16T00:35:40;101774.81;;;7.61;100.00
58843;BME280;44614;54.356;10.100;2023-04-16T00:38:06;101780.28;;;7.61;100.00
58843;BME280;44614;54.356;10.100;2023-04-16T00:40:31;101775.66;;;7.62;100.00
58843;BME280;44614;54.356;10.100;2023-04-16T00:42:56;101780.28;;;7.61;100.00
58843;BME280;44614;54.356;10.100;2023-04-16T00:45:21;101781.31;;;7.60;100.00
58843;BME280;44614;54.356;10.100;2023-04-16T00:47:47;101786.59;;;7.62;100.00
58843;BME280;44614;54.356;10.100;2023-04-16T00:50:12;101775.66;;;7.62;100.00
58843;BME280;44614;54.356;10.100;2023-04-16T00:52:38;101771.88;;;7.63;100.00
58843;BME280;44614;54.356;10.100;2023-04-16T00:55:04;101774.81;;;7.61;100.00
58843;BME280;44614;54.356;10.100;2023-04-16T00:57:30;101768.50;;;7.61;100.00
58843;BME280;44614;54.356;10.100;2023-04-16T00:59:56;101767.63;;;7.60;100.00
58843;BME280;44614;54.356;10.100;2023-04-16T01:02:21;101767.81;;;7.58;100.00
58843;BME280;44614;54.356;10.100;2023-04-16T01:04:47;101770.53;;;7.58;100.00
58843;BME280;44614;54.356;10.100;2023-04-16T01:07:12;101774.31;;;7.57;100.00
58843;BME280;44614;54.356;10.100;2023-04-16T01:09:37;101774.31;;;7.57;100.00
58843;BME280;44614;54.356;10.100;2023-04-16T01:12:03;101774.31;;;7.57;100.00
58843;BME280;44614;54.356;10.100;2023-04-16T01:14:28;101770.72;;;7.57;100.00
58843;BME280;44614;54.356;10.100;2023-04-16T01:16:53;101779.78;;;7.57;100.00
58843;BME280;44614;54.356;10.100;2023-04-16T01:19:18;101779.78;;;7.57;100.00
58843;BME280;44614;54.356;10.100;2023-04-16T01:21:44;101776.00;;;7.58;100.00
58843;BME280;44614;54.356;10.100;2023-04-16T01:24:09;101777.03;;;7.57;100.00
58843;BME280;44614;54.356;10.100;2023-04-16T01:26:34;101773.47;;;7.57;100.00
58843;BME280;44614;54.356;10.100;2023-04-16T01:28:59;101777.88;;;7.58;100.00
58843;BME280;44614;54.356;10.100;2023-04-16T01:31:25;101780.63;;;7.58;100.00
58843;BME280;44614;54.356;10.100;2023-04-16T01:33:50;101787.97;;;7.57;100.00
58843;BME280;44614;54.356;10.100;2023-04-16T01:36:15;101789.03;;;7.56;100.00
58843;BME280;44614;54.356;10.100;2023-04-16T01:38:40;101789.66;;;7.58;100.00
58843;BME280;44614;54.356;10.100;2023-04-16T01:41:06;101792.59;;;7.57;100.00
58843;BME280;44614;54.356;10.100;2023-04-16T01:43:31;101792.41;;;7.58;100.00
58843;BME280;44614;54.356;10.100;2023-04-16T01:46:17;101795.34;;;7.57;100.00
58843;BME280;44614;54.356;10.100;2023-04-16T01:48:44;101790.72;;;7.57;100.00
58843;BME280;44614;54.356;10.100;2023-04-16T01:51:09;101799.94;;;7.56;100.00
58843;BME280;44614;54.356;10.100;2023-04-16T01:53:35;101798.25;;;7.55;100.00
58843;BME280;44614;54.356;10.100;2023-04-16T01:56:00;101792.59;;;7.57;100.00
58843;BME280;44614;54.356;10.100;2023-04-16T01:58:27;101794.50;;;7.56;100.00
58843;BME280;44614;54.356;10.100;2023-04-16T02:00:52;101791.56;;;7.58;100.00
58843;BME280;44614;54.356;10.100;2023-04-16T02:03:17;101792.59;;;7.57;100.00
58843;BME280;44614;54.356;10.100;2023-04-16T02:05:42;101797.22;;;7.56;100.00
58843;BME280;44614;54.356;10.100;2023-04-16T02:08:07;101792.59;;;7.57;100.00
58843;BME280;44614;54.356;10.100;2023-04-16T02:10:33;101791.75;;;7.56;100.00
58843;BME280;44614;54.356;10.100;2023-04-16T02:12:58;101797.22;;;7.56;100.00
58843;BME280;44614;54.356;10.100;2023-04-16T02:15:23;101784.59;;;7.55;100.00
58843;BME280;44614;54.356;10.100;2023-04-16T02:17:49;101798.06;;;7.57;100.00
58843;BME280;44614;54.356;10.100;2023-04-16T02:20:18;101789.19;;;7.55;100.00
58843;BME280;44614;54.356;10.100;2023-04-16T02:22:44;101799.09;;;7.56;100.00
58843;BME280;44614;54.356;10.100;2023-04-16T02:25:09;101792.59;;;7.57;100.00
58843;BME280;44614;54.356;10.100;2023-04-16T02:27:34;101794.50;;;7.56;100.00
58843;BME280;44614;54.356;10.100;2023-04-16T02:30:00;101794.50;;;7.56;100.00
58843;BME280;44614;54.356;10.100;2023-04-16T02:32:26;101788.19;;;7.56;100.00
58843;BME280;44614;54.356;10.100;2023-04-16T02:34:52;101791.75;;;7.56;100.00
58843;BME280;44614;54.356;10.100;2023-04-16T02:37:17;101735.44;;;7.16;100.00
58843;BME280;44614;54.356;10.100;2023-04-16T02:39:42;101800.13;;;7.55;100.00
58843;BME280;44614;54.356;10.100;2023-04-16T02:42:07;101798.25;;;7.55;100.00
58843;BME280;44614;54.356;10.100;2023-04-16T02:44:33;101805.41;;;7.56;100.00
58843;BME280;44614;54.356;10.100;2023-04-16T02:46:58;101800.31;;;7.53;100.00
58843;BME280;44614;54.356;10.100;2023-04-16T02:49:23;101808.31;;;7.55;100.00
58843;BME280;44614;54.356;10.100;2023-04-16T02:51:48;101804.56;;;7.56;100.00
58843;BME280;44614;54.356;10.100;2023-04-16T02:54:14;101801.66;;;7.57;100.00
58843;BME280;44614;54.356;10.100;2023-04-16T02:56:39;101803.53;;;7.57;100.00
58843;BME280;44614;54.356;10.100;2023-04-16T02:59:05;101807.13;;;7.57;100.00
58843;BME280;44614;54.356;10.100;2023-04-16T03:01:30;101806.25;;;7.57;100.00
58843;BME280;44614;54.356;10.100;2023-04-16T03:03:55;101807.13;;;7.57;100.00
58843;BME280;44614;54.356;10.100;2023-04-16T03:06:20;101807.97;;;7.58;100.00
58843;BME280;44614;54.356;10.100;2023-04-16T03:08:45;101808.81;;;7.58;100.00
58843;BME280;44614;54.356;10.100;2023-04-16T03:11:11;101813.44;;;7.58;100.00
58843;BME280;44614;54.356;10.100;2023-04-16T03:13:36;101813.44;;;7.58;100.00
58843;BME280;44614;54.356;10.100;2023-04-16T03:16:01;101810.53;;;7.60;100.00
58843;BME280;44614;54.356;10.100;2023-04-16T03:18:27;101813.28;;;7.60;100.00
58843;BME280;44614;54.356;10.100;2023-04-16T03:20:52;101812.38;;;7.59;100.00
58843;BME280;44614;54.356;10.100;2023-04-16T03:23:17;101814.13;;;7.60;100.00
58843;BME280;44614;54.356;10.100;2023-04-16T03:25:42;101814.97;;;7.61;100.00
58843;BME280;44614;54.356;10.100;2023-04-16T03:28:10;101821.47;;;7.60;100.00
58843;BME280;44614;54.356;10.100;2023-04-16T03:30:36;101816.84;;;7.60;100.00
58843;BME280;44614;54.356;10.100;2023-04-16T03:33:01;101818.91;;;7.58;100.00
58843;BME280;44614;54.356;10.100;2023-04-16T03:35:27;101819.75;;;7.58;100.00
58843;BME280;44614;54.356;10.100;2023-04-16T03:37:52;101818.91;;;7.58;100.00
58843;BME280;44614;54.356;10.100;2023-04-16T03:40:17;101819.75;;;7.58;100.00
58843;BME280;44614;54.356;10.100;2023-04-16T03:42:42;101825.22;;;7.58;100.00
58843;BME280;44614;54.356;10.100;2023-04-16T03:45:08;101821.47;;;7.60;100.00
58843;BME280;44614;54.356;10.100;2023-04-16T03:47:33;101820.44;;;7.61;100.00
58843;BME280;44614;54.356;10.100;2023-04-16T03:49:58;101823.16;;;7.61;100.00
58843;BME280;44614;54.356;10.100;2023-04-16T03:52:23;101824.19;;;7.60;100.00
58843;BME280;44614;54.356;10.100;2023-04-16T03:54:49;101826.94;;;7.60;100.00
58843;BME280;44614;54.356;10.100;2023-04-16T03:57:14;101827.94;;;7.58;100.00
58843;BME280;44614;54.356;10.100;2023-04-16T03:59:39;101826.06;;;7.59;100.00
58843;BME280;44614;54.356;10.100;2023-04-16T04:02:04;101825.22;;;7.58;100.00
58843;BME280;44614;54.356;10.100;2023-04-16T04:04:30;101824.19;;;7.60;100.00
58843;BME280;44614;54.356;10.100;2023-04-16T04:06:55;101828.78;;;7.59;100.00
58843;BME280;44614;54.356;10.100;2023-04-16T04:09:20;101825.06;;;7.60;100.00
58843;BME280;44614;54.356;10.100;2023-04-16T04:11:46;101839.56;;;7.61;100.00
58843;BME280;44614;54.356;10.100;2023-04-16T04:14:11;101828.63;;;7.61;100.00
58843;BME280;44614;54.356;10.100;2023-04-16T04:16:36;101824.84;;;7.62;100.00
58843;BME280;44614;54.356;10.100;2023-04-16T04:19:01;101835.78;;;7.62;100.00
58843;BME280;44614;54.356;10.100;2023-04-16T04:21:27;101834.75;;;7.63;100.00
58843;BME280;44614;54.356;10.100;2023-04-16T04:23:53;101828.44;;;7.62;100.00
58843;BME280;44614;54.356;10.100;2023-04-16T04:26:18;101842.94;;;7.63;100.00
58843;BME280;44614;54.356;10.100;2023-04-16T04:28:43;101844.69;;;7.64;100.00
58843;BME280;44614;54.356;10.100;2023-04-16T04:31:08;101849.09;;;7.65;100.00
58843;BME280;44614;54.356;10.100;2023-04-16T04:33:34;101846.38;;;7.65;100.00
58843;BME280;44614;54.356;10.100;2023-04-16T04:35:59;101848.06;;;7.66;100.00
58843;BME280;44614;54.356;10.100;2023-04-16T04:38:24;101850.81;;;7.66;100.00
58843;BME280;44614;54.356;10.100;2023-04-16T04:40:50;101847.22;;;7.65;100.00
58843;BME280;44614;54.356;10.100;2023-04-16T04:43:17;101851.66;;;7.66;100.00
58843;BME280;44614;54.356;10.100;2023-04-16T04:45:42;101857.81;;;7.68;100.00
58843;BME280;44614;54.356;10.100;2023-04-16T04:48:07;101847.72;;;7.69;100.00
58843;BME280;44614;54.356;10.100;2023-04-16T04:50:32;101847.72;;;7.69;100.00
58843;BME280;44614;54.356;10.100;2023-04-16T04:52:57;101843.94;;;7.70;100.00
58843;BME280;44614;54.356;10.100;2023-04-16T04:55:23;101848.41;;;7.71;100.00
58843;BME280;44614;54.356;10.100;2023-04-16T04:57:48;101845.66;;;7.71;100.00
58843;BME280;44614;54.356;10.100;2023-04-16T05:00:14;101843.59;;;7.73;100.00
58843;BME280;44614;54.356;10.100;2023-04-16T05:02:39;101852.47;;;7.75;100.00
58843;BME280;44614;54.356;10.100;2023-04-16T05:05:05;101853.31;;;7.75;100.00
58843;BME280;44614;54.356;10.100;2023-04-16T05:07:30;101861.34;;;7.77;100.00
58843;BME280;44614;54.356;10.100;2023-04-16T05:09:55;101857.56;;;7.78;100.00
58843;BME280;44614;54.356;10.100;2023-04-16T05:12:20;101850.03;;;7.80;100.00
58843;BME280;44614;54.356;10.100;2023-04-16T05:14:46;101859.94;;;7.81;100.00
58843;BME280;44614;54.356;10.100;2023-04-16T05:17:11;101860.63;;;7.83;100.00
58843;BME280;44614;54.356;10.100;2023-04-16T05:19:36;101859.59;;;7.84;100.00
58843;BME280;44614;54.356;10.100;2023-04-16T05:22:01;101864.88;;;7.86;100.00
58843;BME280;44614;54.356;10.100;2023-04-16T05:24:27;101863.84;;;7.87;100.00
58843;BME280;44614;54.356;10.100;2023-04-16T05:26:52;101866.41;;;7.88;100.00
58843;BME280;44614;54.356;10.100;2023-04-16T05:29:18;101868.09;;;7.89;100.00
58843;BME280;44614;54.356;10.100;2023-04-16T05:31:43;101875.09;;;7.92;100.00
58843;BME280;44614;54.356;10.100;2023-04-16T05:34:08;101875.94;;;7.92;99.84
58843;BME280;44614;54.356;10.100;2023-04-16T05:36:34;101886.53;;;7.95;99.92
58843;BME280;44614;54.356;10.100;2023-04-16T05:38:59;101881.91;;;7.96;99.79
58843;BME280;44614;54.356;10.100;2023-04-16T05:41:25;101884.66;;;7.96;99.78
58843;BME280;44614;54.356;10.100;2023-04-16T05:43:50;101889.06;;;7.97;99.67
58843;BME280;44614;54.356;10.100;2023-04-16T05:46:15;101883.44;;;7.98;99.69
58843;BME280;44614;54.356;10.100;2023-04-16T05:48:40;101885.13;;;7.99;99.54
58843;BME280;44614;54.356;10.100;2023-04-16T05:51:06;101893.84;;;8.03;99.67
58843;BME280;44614;54.356;10.100;2023-04-16T05:53:31;101889.91;;;8.05;99.64
58843;BME280;44614;54.356;10.100;2023-04-16T05:55:56;101896.03;;;8.07;99.60
58843;BME280;44614;54.356;10.100;2023-04-16T05:58:21;101906.59;;;8.11;99.21
58843;BME280;44614;54.356;10.100;2023-04-16T06:00:46;101892.94;;;8.11;99.21
58843;BME280;44614;54.356;10.100;2023-04-16T06:03:12;101904.53;;;8.13;99.43
58843;BME280;44614;54.356;10.100;2023-04-16T06:05:37;101902.47;;;8.15;99.35
58843;BME280;44614;54.356;10.100;2023-04-16T06:08:02;101916.84;;;8.17;99.49
58843;BME280;44614;54.356;10.100;2023-04-16T06:10:27;101901.91;;;8.19;99.14
58843;BME280;44614;54.356;10.100;2023-04-16T06:12:53;101900.88;;;8.20;98.97
58843;BME280;44614;54.356;10.100;2023-04-16T06:15:18;101905.84;;;8.25;98.97
58843;BME280;44614;54.356;10.100;2023-04-16T06:17:43;101898.97;;;8.29;98.77
58843;BME280;44614;54.356;10.100;2023-04-16T06:20:09;101900.66;;;8.30;98.56
58843;BME280;44614;54.356;10.100;2023-04-16T06:22:34;101912.94;;;8.34;98.61
58843;BME280;44614;54.356;10.100;2023-04-16T06:25:00;101921.00;;;8.36;98.38
58843;BME280;44614;54.356;10.100;2023-04-16T06:27:25;101913.63;;;8.36;98.23
58843;BME280;44614;54.356;10.100;2023-04-16T06:29:51;101921.47;;;8.39;98.22
58843;BME280;44614;54.356;10.100;2023-04-16T06:32:16;101920.28;;;8.42;98.00
58843;BME280;44614;54.356;10.100;2023-04-16T06:34:41;101925.09;;;8.40;97.88
58843;BME280;44614;54.356;10.100;2023-04-16T06:37:07;101928.69;;;8.40;97.69
58843;BME280;44614;54.356;10.100;2023-04-16T06:39:32;101927.44;;;8.43;97.65
58843;BME280;44614;54.356;10.100;2023-04-16T06:41:57;101927.28;;;8.44;97.52
58843;BME280;44614;54.356;10.100;2023-04-16T06:44:22;101930.66;;;8.46;97.45
58843;BME280;44614;54.356;10.100;2023-04-16T06:46:49;101937.19;;;8.45;97.39
58843;BME280;44614;54.356;10.100;2023-04-16T06:49:14;101941.63;;;8.46;97.54
58843;BME280;44614;54.356;10.100;2023-04-16T06:51:39;101933.78;;;8.43;97.96
58843;BME280;44614;54.356;10.100;2023-04-16T06:54:05;101941.47;;;8.48;98.15
58843;BME280;44614;54.356;10.100;2023-04-16T06:56:30;101938.53;;;8.49;98.10
58843;BME280;44614;54.356;10.100;2023-04-16T06:58:56;101939.22;;;8.51;98.19
58843;BME280;44614;54.356;10.100;2023-04-16T07:01:23;101940.69;;;8.54;98.05
58843;BME280;44614;54.356;10.100;2023-04-16T07:03:48;101941.19;;;8.58;98.22
58843;BME280;44614;54.356;10.100;2023-04-16T07:06:13;101945.09;;;8.63;97.81
58843;BME280;44614;54.356;10.100;2023-04-16T07:08:38;101941.81;;;8.68;97.62
58843;BME280;44614;54.356;10.100;2023-04-16T07:11:04;101943.97;;;8.72;97.40
58843;BME280;44614;54.356;10.100;2023-04-16T07:13:29;101944.47;;;8.76;96.94
58843;BME280;44614;54.356;10.100;2023-04-16T07:15:54;101946.84;;;8.79;96.69
58843;BME280;44614;54.356;10.100;2023-04-16T07:18:19;101948.38;;;8.82;96.68
58843;BME280;44614;54.356;10.100;2023-04-16T07:20:45;101954.69;;;8.82;96.43
58843;BME280;44614;54.356;10.100;2023-04-16T07:23:10;101956.75;;;8.80;96.14
58843;BME280;44614;54.356;10.100;2023-04-16T07:25:36;101962.59;;;8.77;95.81
58843;BME280;44614;54.356;10.100;2023-04-16T07:28:01;101951.47;;;8.78;95.71
58843;BME280;44614;54.356;10.100;2023-04-16T07:30:27;101964.50;;;8.76;95.56
58843;BME280;44614;54.356;10.100;2023-04-16T07:32:58;101964.19;;;8.71;94.70
58843;BME280;44614;54.356;10.100;2023-04-16T07:35:23;101972.56;;;8.70;95.39
58843;BME280;44614;54.356;10.100;2023-04-16T07:37:48;101970.53;;;8.72;95.47
58843;BME280;44614;54.356;10.100;2023-04-16T07:40:13;101972.91;;;8.75;95.33
58843;BME280;44614;54.356;10.100;2023-04-16T07:42:39;101970.16;;;8.75;95.53
58843;BME280;44614;54.356;10.100;2023-04-16T07:45:04;101966.38;;;8.76;95.18
58843;BME280;44614;54.356;10.100;2023-04-16T07:47:29;101968.91;;;8.77;95.12
58843;BME280;44614;54.356;10.100;2023-04-16T07:49:55;101972.16;;;8.81;95.25
58843;BME280;44614;54.356;10.100;2023-04-16T07:52:20;101967.53;;;8.82;95.06
58843;BME280;44614;54.356;10.100;2023-04-16T07:54:45;101970.75;;;8.85;95.19
58843;BME280;44614;54.356;10.100;2023-04-16T07:57:11;101975.69;;;8.90;95.25
58843;BME280;44614;54.356;10.100;2023-04-16T07:59:36;101973.03;;;8.96;95.46
58843;BME280;44614;54.356;10.100;2023-04-16T08:02:01;101971.84;;;8.99;94.78
58843;BME280;44614;54.356;10.100;2023-04-16T08:04:27;101974.41;;;9.00;94.39
58843;BME280;44614;54.356;10.100;2023-04-16T08:06:52;101973.53;;;9.00;94.40
58843;BME280;44614;54.356;10.100;2023-04-16T08:09:21;101981.59;;;9.01;94.34
58843;BME280;44614;54.356;10.100;2023-04-16T08:11:47;101988.19;;;9.07;94.55
58843;BME280;44614;54.356;10.100;2023-04-16T08:14:14;101989.72;;;9.10;93.97
58843;BME280;44614;54.356;10.100;2023-04-16T08:16:39;101998.50;;;9.05;93.30
58843;BME280;44614;54.356;10.100;2023-04-16T08:19:04;101993.88;;;9.06;93.66
58843;BME280;44614;54.356;10.100;2023-04-16T08:21:29;101996.25;;;9.09;93.67
58843;BME280;44614;54.356;10.100;2023-04-16T08:23:55;101990.94;;;9.07;93.40
58843;BME280;44614;54.356;10.100;2023-04-16T08:26:20;101998.50;;;9.05;93.46
58843;BME280;44614;54.356;10.100;2023-04-16T08:28:46;102006.88;;;9.03;93.37
58843;BME280;44614;54.356;10.100;2023-04-16T08:31:11;102016.16;;;9.02;93.35
58843;BME280;44614;54.356;10.100;2023-04-16T08:33:36;102019.94;;;9.01;93.45
58843;BME280;44614;54.356;10.100;2023-04-16T08:36:01;102022.00;;;8.99;93.45
58843;BME280;44614;54.356;10.100;2023-04-16T08:38:26;102022.25;;;8.90;93.28
58843;BME280;44614;54.356;10.100;2023-04-16T08:40:52;102025.06;;;8.82;93.50
58843;BME280;44614;54.356;10.100;2023-04-16T08:43:18;102029.38;;;8.76;93.82
58843;BME280;44614;54.356;10.100;2023-04-16T08:45:46;102034.00;;;8.75;94.57
58843;BME280;44614;54.356;10.100;2023-04-16T08:48:15;102034.56;;;8.71;94.42
58843;BME280;44614;54.356;10.100;2023-04-16T08:50:40;102029.94;;;8.71;95.25
58843;BME280;44614;54.356;10.100;2023-04-16T08:53:06;102032.47;;;8.73;95.20
58843;BME280;44614;54.356;10.100;2023-04-16T08:55:36;102038.78;;;8.73;95.67
58843;BME280;44614;54.356;10.100;2023-04-16T08:58:03;102037.59;;;8.76;95.68
58843;BME280;44614;54.356;10.100;2023-04-16T09:00:30;102044.13;;;8.75;95.54
58843;BME280;44614;54.356;10.100;2023-04-16T09:02:55;102041.19;;;8.76;95.64
58843;BME280;44614;54.356;10.100;2023-04-16T09:05:20;102042.88;;;8.77;95.51
58843;BME280;44614;54.356;10.100;2023-04-16T09:07:49;102046.78;;;8.83;95.96
58843;BME280;44614;54.356;10.100;2023-04-16T09:10:16;102039.06;;;8.87;95.53
58843;BME280;44614;54.356;10.100;2023-04-16T09:12:42;102045.03;;;8.90;95.57
58843;BME280;44614;54.356;10.100;2023-04-16T09:15:10;102055.78;;;8.92;95.10
58843;BME280;44614;54.356;10.100;2023-04-16T09:17:36;102046.00;;;8.97;94.91
58843;BME280;44614;54.356;10.100;2023-04-16T09:20:02;102051.13;;;9.00;94.62
58843;BME280;44614;54.356;10.100;2023-04-16T09:22:29;102054.16;;;9.06;94.29
58843;BME280;44614;54.356;10.100;2023-04-16T09:24:55;102056.13;;;9.12;94.16
58843;BME280;44614;54.356;10.100;2023-04-16T09:27:20;102060.59;;;9.13;93.56
58843;BME280;44614;54.356;10.100;2023-04-16T09:29:46;102060.34;;;9.22;93.97
58843;BME280;44614;54.356;10.100;2023-04-16T09:32:11;102062.16;;;9.30;93.76
58843;BME280;44614;54.356;10.100;2023-04-16T09:37:20;102061.53;;;9.43;93.23
58843;BME280;44614;54.356;10.100;2023-04-16T09:39:51;102069.09;;;9.41;91.92
58843;BME280;44614;54.356;10.100;2023-04-16T09:42:20;102069.78;;;9.43;92.18
58843;BME280;44614;54.356;10.100;2023-04-16T09:44:48;102075.34;;;9.49;92.22
58843;BME280;44614;54.356;10.100;2023-04-16T09:47:13;102071.19;;;9.53;91.69
58843;BME280;44614;54.356;10.100;2023-04-16T09:49:41;102073.94;;;9.53;91.09
58843;BME280;44614;54.356;10.100;2023-04-16T09:52:13;102078.88;;;9.58;91.24
58843;BME280;44614;54.356;10.100;2023-04-16T09:54:49;102077.47;;;9.62;90.82
58843;BME280;44614;54.356;10.100;2023-04-16T09:57:22;102083.44;;;9.66;90.74
58843;BME280;44614;54.356;10.100;2023-04-16T09:59:48;102081.16;;;9.69;90.93
58843;BME280;44614;54.356;10.100;2023-04-16T10:02:16;102078.91;;;9.73;90.18
58843;BME280;44614;54.356;10.100;2023-04-16T10:04:48;102082.56;;;9.65;88.09
58843;BME280;44614;54.356;10.100;2023-04-16T10:07:14;102084.72;;;9.55;88.58
58843;BME280;44614;54.356;10.100;2023-04-16T10:09:39;102088.81;;;9.59;89.08
58843;BME280;44614;54.356;10.100;2023-04-16T10:12:05;102090.22;;;9.55;88.54
58843;BME280;44614;54.356;10.100;2023-04-16T10:14:31;102097.97;;;9.51;89.18
58843;BME280;44614;54.356;10.100;2023-04-16T10:16:56;102097.69;;;9.46;88.04
58843;BME280;44614;54.356;10.100;2023-04-16T10:19:22;102089.13;;;9.41;89.06
58843;BME280;44614;54.356;10.100;2023-04-16T10:21:47;102099.53;;;9.46;89.28
58843;BME280;44614;54.356;10.100;2023-04-16T10:24:12;102098.75;;;9.37;88.67
58843;BME280;44614;54.356;10.100;2023-04-16T10:26:40;102097.22;;;9.35;89.32
58843;BME280;44614;54.356;10.100;2023-04-16T10:29:05;102094.97;;;9.38;90.33
58843;BME280;44614;54.356;10.100;2023-04-16T10:31:31;102097.84;;;9.45;90.78
58843;BME280;44614;54.356;10.100;2023-04-16T10:33:56;102109.16;;;9.42;90.10
58843;BME280;44614;54.356;10.100;2023-04-16T10:36:23;102107.75;;;9.31;90.73
58843;BME280;44614;54.356;10.100;2023-04-16T10:38:49;102114.25;;;9.30;92.30
58843;BME280;44614;54.356;10.100;2023-04-16T10:41:16;102119.44;;;9.25;93.87
58843;BME280;44614;54.356;10.100;2023-04-16T10:43:44;102116.41;;;9.20;95.68
58843;BME280;44614;54.356;10.100;2023-04-16T10:48:47;102126.19;;;9.14;97.01
58843;BME280;44614;54.356;10.100;2023-04-16T10:56:38;102119.31;;;9.18;98.20
58843;BME280;44614;54.356;10.100;2023-04-16T10:59:04;102123.31;;;9.08;98.21
58843;BME280;44614;54.356;10.100;2023-04-16T11:01:34;102125.75;;;9.02;97.75
58843;BME280;44614;54.356;10.100;2023-04-16T11:04:00;102132.69;;;8.90;98.03
58843;BME280;44614;54.356;10.100;2023-04-16T11:10:12;102133.97;;;9.02;99.20
58843;BME280;44614;54.356;10.100;2023-04-16T11:12:22;102127.22;;;8.90;98.06
58843;BME280;44614;54.356;10.100;2023-04-16T11:14:48;102125.47;;;8.97;99.51
58843;BME280;44614;54.356;10.100;2023-04-16T11:17:14;102123.81;;;9.11;99.73
58843;BME280;44614;54.356;10.100;2023-04-16T11:19:40;102120.84;;;9.21;99.06
58843;BME280;44614;54.356;10.100;2023-04-16T11:22:06;102124.19;;;9.31;98.16
58843;BME280;44614;54.356;10.100;2023-04-16T11:24:31;102122.94;;;9.34;96.19
58843;BME280;44614;54.356;10.100;2023-04-16T11:26:57;102129.72;;;9.23;94.74
58843;BME280;44614;54.356;10.100;2023-04-16T11:29:22;102133.84;;;9.19;95.05
58843;BME280;44614;54.356;10.100;2023-04-16T11:31:51;102136.78;;;9.17;94.28
58843;BME280;44614;54.356;10.100;2023-04-16T11:34:16;102141.44;;;9.17;94.57
58843;BME280;44614;54.356;10.100;2023-04-16T11:36:45;102140.38;;;9.18;94.75
58843;BME280;44614;54.356;10.100;2023-04-16T11:39:10;102139.28;;;9.27;94.80
58843;BME280;44614;54.356;10.100;2023-04-16T11:41:41;102147.19;;;9.22;94.17
58843;BME280;44614;54.356;10.100;2023-04-16T11:44:23;102135.19;;;9.23;94.74
58843;BME280;44614;54.356;10.100;2023-04-16T11:46:49;102147.56;;;9.19;93.92
58843;BME280;44614;54.356;10.100;2023-04-16T11:49:14;102140.09;;;9.13;94.71
58843;BME280;44614;54.356;10.100;2023-04-16T11:51:42;102156.19;;;9.08;95.03
58843;BME280;44614;54.356;10.100;2023-04-16T11:54:07;102152.19;;;9.18;95.90
58843;BME280;44614;54.356;10.100;2023-04-16T11:56:33;102155.72;;;9.27;95.50
58843;BME280;44614;54.356;10.100;2023-04-16T11:59:12;102151.22;;;9.34;95.07
58843;BME280;44614;54.356;10.100;2023-04-16T12:01:38;102154.94;;;9.41;94.50
58843;BME280;44614;54.356;10.100;2023-04-16T12:04:05;102151.97;;;9.51;93.36
58843;BME280;44614;54.356;10.100;2023-04-16T12:06:30;102150.97;;;9.67;93.62
58843;BME280;44614;54.356;10.100;2023-04-16T12:08:58;102149.22;;;9.89;92.21
58843;BME280;44614;54.356;10.100;2023-04-16T12:11:37;102147.81;;;10.08;91.68
58843;BME280;44614;54.356;10.100;2023-04-16T12:14:09;102148.47;;;10.24;89.22
58843;BME280;44614;54.356;10.100;2023-04-16T12:16:35;102149.47;;;10.32;89.01
58843;BME280;44614;54.356;10.100;2023-04-16T12:19:00;102146.88;;;10.30;87.16
58843;BME280;44614;54.356;10.100;2023-04-16T12:21:37;102152.69;;;10.35;87.19
58843;BME280;44614;54.356;10.100;2023-04-16T12:24:03;102152.09;;;10.25;86.66
58843;BME280;44614;54.356;10.100;2023-04-16T12:27:14;102153.22;;;10.16;86.61
58843;BME280;44614;54.356;10.100;2023-04-16T12:29:18;102158.34;;;10.34;88.01
58843;BME280;44614;54.356;10.100;2023-04-16T12:31:44;102149.56;;;10.38;86.94
58843;BME280;44614;54.356;10.100;2023-04-16T12:34:09;102150.94;;;10.49;85.63
58843;BME280;44614;54.356;10.100;2023-04-16T12:36:35;102154.09;;;10.61;86.06
58843;BME280;44614;54.356;10.100;2023-04-16T12:39:00;102153.91;;;10.47;84.00
58843;BME280;44614;54.356;10.100;2023-04-16T12:41:27;102152.00;;;10.48;85.27
58843;BME280;44614;54.356;10.100;2023-04-16T12:44:00;102156.28;;;10.51;84.77
58843;BME280;44614;54.356;10.100;2023-04-16T12:46:28;102152.47;;;10.52;84.72
58843;BME280;44614;54.356;10.100;2023-04-16T12:48:53;102155.97;;;10.60;85.86
58843;BME280;44614;54.356;10.100;2023-04-16T12:51:21;102158.03;;;10.73;85.86
58843;BME280;44614;54.356;10.100;2023-04-16T12:53:47;102153.19;;;10.75;83.76